createdAt,value
2018-12-07T00:01:54.513Z,95794.34
2018-12-07T00:04:23.792Z,95795.45
2018-12-07T00:06:52.789Z,95806.58
2018-12-07T00:09:21.803Z,95805.97
2018-12-07T00:11:50.872Z,95800.91
2018-12-07T00:14:19.945Z,95794.67
2018-12-07T00:16:48.907Z,95798.69
2018-12-07T00:19:17.839Z,95795.48
2018-12-07T00:21:46.831Z,95797.88
2018-12-07T00:24:15.944Z,95787.30
2018-12-07T00:26:45.040Z,95782.02
2018-12-07T00:29:14.146Z,95787.36
2018-12-07T00:31:43.116Z,95784.74
2018-12-07T00:34:12.123Z,95780.79
2018-12-07T00:36:41.288Z,95777.45
2018-12-07T00:39:10.453Z,95774.91
2018-12-07T00:41:39.422Z,95771.85
2018-12-07T00:44:08.638Z,95771.94
2018-12-07T00:46:37.593Z,95772.52
2018-12-07T00:49:06.592Z,95771.46
2018-12-07T00:51:35.679Z,95773.38
2018-12-07T00:54:04.671Z,95774.08
2018-12-07T00:56:33.785Z,95768.47
2018-12-07T00:59:02.763Z,95764.35
2018-12-07T01:01:31.783Z,95770.19
2018-12-07T01:04:00.781Z,95763.47
2018-12-07T01:06:29.787Z,95758.70
2018-12-07T01:08:58.767Z,95770.12
2018-12-07T01:11:27.829Z,95770.52
2018-12-07T01:13:56.908Z,95763.98
2018-12-07T01:16:26.058Z,95760.70
2018-12-07T01:18:54.944Z,95764.52
2018-12-07T01:21:24.000Z,95771.85
2018-12-07T01:23:53.018Z,95773.34
2018-12-07T01:26:22.164Z,95767.60
2018-12-07T01:28:51.103Z,95763.83
2018-12-07T01:31:20.087Z,95764.16
2018-12-07T01:33:49.254Z,95772.44
2018-12-07T01:36:18.292Z,95765.42
2018-12-07T01:38:47.380Z,95765.72
2018-12-07T01:41:16.493Z,95763.01
2018-12-07T01:43:45.572Z,95770.82
2018-12-07T01:46:14.592Z,95761.95
2018-12-07T01:48:43.679Z,95773.14
2018-12-07T01:51:12.813Z,95767.77
2018-12-07T01:53:41.764Z,95773.82
2018-12-07T01:56:10.770Z,95773.73
2018-12-07T01:58:39.741Z,95773.73
2018-12-07T02:01:08.857Z,95773.47
2018-12-07T02:03:37.839Z,95770.42
2018-12-07T02:06:06.881Z,95779.83
2018-12-07T02:08:35.873Z,95774.98
2018-12-07T02:11:04.953Z,95784.39
2018-12-07T02:13:34.109Z,95777.44
2018-12-07T02:16:03.180Z,95773.03
2018-12-07T02:18:32.331Z,95769.41
2018-12-07T02:21:01.406Z,95765.50
2018-12-07T02:23:30.644Z,95763.16
2018-12-07T02:25:59.688Z,95762.11
2018-12-07T02:28:28.729Z,95756.58
2018-12-07T02:30:57.716Z,95754.34
2018-12-07T02:33:26.738Z,95753.31
2018-12-07T02:35:55.686Z,95746.89
2018-12-07T02:38:24.701Z,95744.93
2018-12-07T02:40:53.709Z,95746.69
2018-12-07T02:43:22.775Z,95745.00
2018-12-07T02:45:51.773Z,95747.48
2018-12-07T02:48:20.887Z,95741.20
2018-12-07T02:50:50.056Z,95743.59
2018-12-07T02:53:19.145Z,95749.72
2018-12-07T02:55:48.256Z,95744.27
2018-12-07T02:58:17.366Z,95755.98
2018-12-07T03:00:46.461Z,95753.95
2018-12-07T03:03:15.456Z,95758.34
2018-12-07T03:05:44.566Z,95766.98
2018-12-07T03:08:13.651Z,95768.24
2018-12-07T03:10:42.755Z,95766.66
2018-12-07T03:13:11.744Z,95767.28
2018-12-07T03:15:40.739Z,95767.10
2018-12-07T03:18:19.347Z,95771.19
2018-12-07T03:20:48.334Z,95776.33
2018-12-07T03:23:17.341Z,95775.42
2018-12-07T03:25:46.421Z,95782.09
2018-12-07T03:28:15.672Z,95784.33
2018-12-07T03:30:44.672Z,95786.34
2018-12-07T03:33:13.637Z,95781.62
2018-12-07T03:35:42.711Z,95771.66
2018-12-07T03:38:11.805Z,95773.58
2018-12-07T03:40:40.889Z,95773.84
2018-12-07T03:43:09.992Z,95773.20
2018-12-07T03:45:38.995Z,95773.91
2018-12-07T03:48:08.092Z,95777.50
2018-12-07T03:50:37.080Z,95776.80
2018-12-07T03:53:06.180Z,95772.91
2018-12-07T03:55:35.272Z,95774.41
2018-12-07T03:58:04.391Z,95768.80
2018-12-07T04:00:33.480Z,95775.60
2018-12-07T04:03:02.494Z,95778.84
2018-12-07T04:05:31.609Z,95780.01
2018-12-07T04:08:00.565Z,95780.01
2018-12-07T04:10:29.631Z,95779.72
2018-12-07T04:12:58.648Z,95775.36
2018-12-07T04:15:27.661Z,95778.64
2018-12-07T04:17:56.723Z,95776.42
2018-12-07T04:20:25.820Z,95784.83
2018-12-07T04:22:55.044Z,95784.94
2018-12-07T04:25:24.013Z,95790.84
2018-12-07T04:27:52.884Z,95795.48
2018-12-07T04:30:26.437Z,95788.04
2018-12-07T04:32:55.627Z,95777.59
2018-12-07T04:35:24.608Z,95776.42
2018-12-07T04:37:53.816Z,95781.79
2018-12-07T04:40:22.925Z,95775.55
2018-12-07T04:42:51.911Z,95776.83
2018-12-07T04:45:20.889Z,95784.62
2018-12-07T04:47:49.912Z,95772.70
2018-12-07T04:50:18.999Z,95768.33
2018-12-07T04:52:47.984Z,95774.72
2018-12-07T04:55:16.980Z,95775.16
2018-12-07T04:57:45.982Z,95779.37
2018-12-07T05:00:14.968Z,95776.65
2018-12-07T05:02:43.933Z,95770.48
2018-12-07T05:05:13.160Z,95773.64
2018-12-07T05:07:42.127Z,95782.22
2018-12-07T05:10:11.151Z,95775.89
2018-12-07T05:12:40.233Z,95781.50
2018-12-07T05:15:09.350Z,95782.14
2018-12-07T05:17:38.524Z,95792.63
2018-12-07T05:20:08.188Z,95786.70
2018-12-07T05:25:37.024Z,95794.34
2018-12-07T05:28:06.132Z,95802.46
2018-12-07T05:30:35.155Z,95802.34
2018-12-07T05:33:04.252Z,95801.00
2018-12-07T05:35:33.355Z,95805.85
2018-12-07T05:38:02.522Z,95804.45
2018-12-07T05:40:31.751Z,95797.73
2018-12-07T05:43:00.776Z,95798.03
2018-12-07T05:45:29.738Z,95793.09
2018-12-07T05:47:58.819Z,95792.89
2018-12-07T05:50:27.714Z,95800.86
2018-12-07T05:52:56.908Z,95805.59
2018-12-07T05:55:26.003Z,95803.11
2018-12-07T05:57:55.083Z,95813.16
2018-12-07T06:00:24.221Z,95808.02
2018-12-07T06:02:53.385Z,95819.17
2018-12-07T06:05:22.383Z,95813.64
2018-12-07T06:07:51.589Z,95815.27
2018-12-07T06:10:20.708Z,95819.19
2018-12-07T06:12:49.793Z,95819.86
2018-12-07T06:15:19.127Z,95816.27
2018-12-07T06:17:48.190Z,95820.73
2018-12-07T06:20:17.310Z,95822.22
2018-12-07T06:22:46.383Z,95835.95
2018-12-07T06:25:15.531Z,95832.73
2018-12-07T06:27:44.740Z,95837.16
2018-12-07T06:30:13.829Z,95831.94
2018-12-07T06:32:42.993Z,95832.58
2018-12-07T06:35:12.084Z,95827.87
2018-12-07T06:37:40.908Z,95831.72
2018-12-07T06:40:09.660Z,95831.87
2018-12-07T06:42:38.420Z,95834.39
2018-12-07T06:45:07.260Z,95827.68
2018-12-07T06:47:36.340Z,95818.47
2018-12-07T06:50:05.722Z,95818.71
2018-12-07T06:52:34.829Z,95813.89
2018-12-07T06:55:03.873Z,95811.31
2018-12-07T06:57:32.933Z,95806.27
2018-12-07T07:00:02.253Z,95815.52
2018-12-07T07:02:31.302Z,95821.66
2018-12-07T07:05:00.525Z,95829.98
2018-12-07T07:07:29.656Z,95825.89
2018-12-07T07:09:58.647Z,95837.99
2018-12-07T07:12:29.177Z,95834.92
2018-12-07T07:14:58.533Z,95844.70
2018-12-07T07:17:27.534Z,95845.23
2018-12-07T07:19:56.551Z,95854.32
2018-12-07T07:22:25.593Z,95851.72
2018-12-07T07:24:54.618Z,95847.25
2018-12-07T07:27:23.627Z,95850.81
2018-12-07T07:29:52.641Z,95850.23
2018-12-07T07:32:21.819Z,95842.31
2018-12-07T07:34:51.007Z,95842.84
2018-12-07T07:37:20.124Z,95840.94
2018-12-07T07:39:49.199Z,95826.25
2018-12-07T07:42:18.364Z,95825.72
2018-12-07T07:44:47.393Z,95829.38
2018-12-07T07:47:16.479Z,95819.91
2018-12-07T07:49:45.592Z,95825.72
2018-12-07T07:52:14.633Z,95820.72
2018-12-07T07:54:43.615Z,95808.05
2018-12-07T07:57:12.664Z,95802.06
2018-12-07T07:59:41.648Z,95801.86
2018-12-07T08:02:10.628Z,95792.86
2018-12-07T08:04:39.372Z,95794.34
2018-12-07T08:07:08.337Z,95799.91
2018-12-07T08:09:37.432Z,95792.39
2018-12-07T08:12:06.530Z,95783.14
2018-12-07T08:14:35.637Z,95766.75
2018-12-07T08:17:04.724Z,95760.12
2018-12-07T08:19:33.724Z,95756.37
2018-12-07T08:22:02.968Z,95753.52
2018-12-07T08:24:32.348Z,95748.60
2018-12-07T08:27:01.321Z,95745.63
2018-12-07T08:29:30.594Z,95749.28
2018-12-07T08:31:59.669Z,95751.09
2018-12-07T08:34:28.765Z,95751.20
2018-12-07T08:36:57.805Z,95757.02
2018-12-07T08:39:26.801Z,95756.58
2018-12-07T08:41:55.848Z,95750.30
2018-12-07T08:44:24.955Z,95745.02
2018-12-07T08:46:54.068Z,95742.73
2018-12-07T08:49:28.194Z,95745.81
2018-12-07T08:51:57.214Z,95741.11
2018-12-07T08:54:26.182Z,95746.52
2018-12-07T08:56:55.221Z,95744.82
2018-12-07T08:59:24.184Z,95742.55
2018-12-07T09:01:53.199Z,95744.09
2018-12-07T09:04:22.264Z,95734.77
2018-12-07T09:06:51.397Z,95730.02
2018-12-07T09:09:20.547Z,95728.94
2018-12-07T09:11:49.588Z,95722.16
2018-12-07T09:14:18.668Z,95713.02
2018-12-07T09:16:47.736Z,95709.69
2018-12-07T09:19:16.825Z,95704.31
2018-12-07T09:21:45.939Z,95698.57
2018-12-07T09:24:15.033Z,95691.88
2018-12-07T09:26:44.032Z,95692.97
2018-12-07T09:29:13.120Z,95688.73
2018-12-07T09:31:42.329Z,95679.45
2018-12-07T09:34:11.353Z,95675.66
2018-12-07T09:36:40.563Z,95676.19
2018-12-07T09:39:10.724Z,95670.45
2018-12-07T09:41:39.830Z,95664.03
2018-12-07T09:44:08.817Z,95666.88
2018-12-07T09:46:37.960Z,95674.33
2018-12-07T09:49:07.019Z,95664.64
2018-12-07T09:51:36.190Z,95664.64
2018-12-07T09:54:05.341Z,95660.00
2018-12-07T09:56:34.318Z,95652.95
2018-12-07T09:59:03.306Z,95644.61
2018-12-07T10:01:32.320Z,95645.22
2018-12-07T10:04:01.569Z,95640.29
2018-12-07T10:06:30.633Z,95638.50
2018-12-07T10:08:59.679Z,95632.23
2018-12-07T10:11:28.776Z,95619.85
2018-12-07T10:13:57.868Z,95615.66
2018-12-07T10:16:26.875Z,95604.70
2018-12-07T10:18:55.941Z,95608.05
2018-12-07T10:21:25.004Z,95608.42
2018-12-07T10:23:53.879Z,95612.16
2018-12-07T10:26:22.860Z,95607.31
2018-12-07T10:28:51.904Z,95597.38
2018-12-07T10:31:20.977Z,95590.95
2018-12-07T10:33:50.823Z,95590.75
2018-12-07T10:36:19.970Z,95592.66
2018-12-07T10:38:49.031Z,95593.19
2018-12-07T10:41:18.129Z,95595.43
2018-12-07T10:43:47.144Z,95589.77
2018-12-07T10:46:16.233Z,95595.34
2018-12-07T10:48:45.441Z,95592.83
2018-12-07T10:51:14.392Z,95594.33
2018-12-07T10:53:43.409Z,95599.22
2018-12-07T10:56:12.520Z,95593.40
2018-12-07T10:58:41.539Z,95588.39
2018-12-07T11:01:15.709Z,95580.94
2018-12-07T11:03:49.646Z,95577.97
2018-12-07T11:06:23.870Z,95576.70
2018-12-07T11:08:57.791Z,95568.33
2018-12-07T11:11:31.857Z,95565.80
2018-12-07T11:14:06.055Z,95566.56
2018-12-07T11:16:40.013Z,95567.91
2018-12-07T11:20:14.753Z,95555.36
2018-12-07T11:22:48.637Z,95555.52
2018-12-07T11:25:22.694Z,95541.55
2018-12-07T11:27:56.677Z,95537.89
2018-12-07T11:30:30.394Z,95524.53
2018-12-07T11:33:04.841Z,95516.08
2018-12-07T11:35:37.211Z,95510.86
2018-12-07T11:38:06.187Z,95505.80
2018-12-07T11:40:35.272Z,95497.27
2018-12-07T11:43:04.372Z,95487.94
2018-12-07T11:45:33.460Z,95487.13
2018-12-07T11:48:02.607Z,95488.47
2018-12-07T11:50:31.684Z,95487.20
2018-12-07T11:53:00.697Z,95487.14
2018-12-07T11:55:29.744Z,95491.40
2018-12-07T11:57:58.717Z,95486.10
2018-12-07T12:00:27.743Z,95483.98
2018-12-07T12:02:56.829Z,95482.28
2018-12-07T12:05:25.963Z,95482.50
2018-12-07T12:07:55.107Z,95485.64
2018-12-07T12:10:24.380Z,95494.28
2018-12-07T12:12:53.400Z,95497.42
2018-12-07T12:15:22.673Z,95501.89
2018-12-07T12:17:51.820Z,95497.86
2018-12-07T12:20:20.952Z,95498.69
2018-12-07T12:22:50.016Z,95489.67
2018-12-07T12:25:19.120Z,95481.30
2018-12-07T12:27:48.308Z,95473.84
2018-12-07T12:30:17.929Z,95475.35
2018-12-07T12:32:47.224Z,95471.45
2018-12-07T12:35:16.346Z,95469.52
2018-12-07T12:37:45.497Z,95468.34
2018-12-07T12:40:14.644Z,95471.45
2018-12-07T12:42:43.699Z,95464.44
2018-12-07T12:45:12.799Z,95463.11
2018-12-07T12:47:41.886Z,95463.30
2018-12-07T12:50:16.074Z,95461.00
2018-12-07T12:52:45.159Z,95473.16
2018-12-07T12:55:14.322Z,95467.58
2018-12-07T12:57:43.367Z,95469.28
2018-12-07T13:00:12.441Z,95478.69
2018-12-07T13:02:41.690Z,95478.47
2018-12-07T13:05:10.794Z,95472.49
2018-12-07T13:07:39.770Z,95472.06
2018-12-07T13:10:08.875Z,95477.89
2018-12-07T13:12:37.935Z,95470.41
2018-12-07T13:15:07.047Z,95465.20
2018-12-07T13:17:36.090Z,95478.42
2018-12-07T13:20:05.791Z,95482.11
2018-12-07T13:22:34.813Z,95474.89
2018-12-07T13:25:03.991Z,95480.77
2018-12-07T13:27:33.176Z,95476.98
2018-12-07T13:30:02.178Z,95473.77
2018-12-07T13:32:31.490Z,95474.14
2018-12-07T13:35:00.575Z,95474.14
2018-12-07T13:37:29.772Z,95478.10
2018-12-07T13:39:58.986Z,95473.05
2018-12-07T13:42:27.984Z,95468.80
2018-12-07T13:44:57.194Z,95473.80
2018-12-07T13:47:26.578Z,95475.05
2018-12-07T13:51:01.539Z,95467.45
2018-12-07T13:53:31.023Z,95472.66
2018-12-07T13:56:00.187Z,95464.52
2018-12-07T13:58:29.411Z,95461.16
2018-12-07T14:00:58.818Z,95458.94
2018-12-07T14:03:28.116Z,95449.47
2018-12-07T14:05:57.375Z,95451.42
2018-12-07T14:08:26.784Z,95449.02
2018-12-07T14:10:56.162Z,95448.79
2018-12-07T14:13:25.366Z,95440.30
2018-12-07T14:15:54.673Z,95438.78
2018-12-07T14:18:24.096Z,95429.55
2018-12-07T14:20:53.174Z,95426.72
2018-12-07T14:23:22.620Z,95425.06
2018-12-07T14:25:51.887Z,95416.26
2018-12-07T14:28:20.996Z,95421.25
2018-12-07T14:30:50.301Z,95424.22
2018-12-07T14:33:19.528Z,95422.83
2018-12-07T14:35:48.791Z,95415.95
2018-12-07T14:38:17.921Z,95421.55
2018-12-07T14:40:47.077Z,95415.27
2018-12-07T14:43:16.219Z,95409.78
2018-12-07T14:45:45.579Z,95412.32
2018-12-07T14:48:15.198Z,95412.61
2018-12-07T14:50:44.649Z,95412.89
2018-12-07T14:53:13.999Z,95411.05
2018-12-07T14:55:43.310Z,95406.04
2018-12-07T14:58:12.657Z,95409.76
2018-12-07T15:00:41.957Z,95399.23
2018-12-07T15:03:11.042Z,95402.08
2018-12-07T15:05:40.127Z,95401.66
2018-12-07T15:08:09.185Z,95394.48
2018-12-07T15:10:38.451Z,95389.18
2018-12-07T15:13:07.973Z,95380.84
2018-12-07T15:15:37.305Z,95388.16
2018-12-07T15:18:06.659Z,95386.92
2018-12-07T15:20:35.784Z,95394.38
2018-12-07T15:23:05.139Z,95392.58
2018-12-07T15:25:34.524Z,95395.27
2018-12-07T15:28:03.920Z,95392.82
2018-12-07T15:30:33.241Z,95397.17
2018-12-07T15:33:02.397Z,95389.75
2018-12-07T15:35:31.614Z,95392.83
2018-12-07T15:38:00.841Z,95403.54
2018-12-07T15:40:29.970Z,95405.87
2018-12-07T15:42:59.127Z,95418.63
2018-12-07T15:45:28.303Z,95421.48
2018-12-07T15:47:57.380Z,95417.91
2018-12-07T15:50:26.459Z,95421.33
2018-12-07T15:52:55.576Z,95421.34
2018-12-07T15:55:24.822Z,95422.23
2018-12-07T15:57:54.212Z,95419.69
2018-12-07T16:00:23.373Z,95419.23
2018-12-07T16:02:52.571Z,95417.89
2018-12-07T16:05:21.838Z,95422.06
2018-12-07T16:07:51.199Z,95422.90
2018-12-07T16:10:20.112Z,95424.18
2018-12-07T16:12:49.353Z,95426.86
2018-12-07T16:15:18.426Z,95431.17
2018-12-07T16:17:47.775Z,95435.59
2018-12-07T16:20:18.889Z,95431.25
2018-12-07T16:22:48.040Z,95425.36
2018-12-07T16:25:17.556Z,95425.66
2018-12-07T16:27:46.846Z,95417.58
2018-12-07T16:30:15.862Z,95419.23
2018-12-07T16:32:45.004Z,95415.20
2018-12-07T16:35:14.220Z,95415.73
2018-12-07T16:37:43.502Z,95409.39
2018-12-07T16:40:12.824Z,95409.08
2018-12-07T16:42:41.994Z,95403.36
2018-12-07T16:45:11.254Z,95396.54
2018-12-07T16:47:40.541Z,95391.31
2018-12-07T16:50:09.739Z,95385.65
2018-12-07T16:52:39.167Z,95384.86
2018-12-07T16:55:08.268Z,95372.73
2018-12-07T16:57:37.603Z,95376.95
2018-12-07T17:00:07.413Z,95375.22
2018-12-07T17:02:36.468Z,95385.22
2018-12-07T17:05:06.133Z,95385.36
2018-12-07T17:07:35.705Z,95387.98
2018-12-07T17:10:05.355Z,95385.07
2018-12-07T17:12:34.558Z,95379.56
2018-12-07T17:15:03.867Z,95370.73
2018-12-07T17:17:33.016Z,95374.41
2018-12-07T17:20:02.143Z,95377.84
2018-12-07T17:22:31.344Z,95374.72
2018-12-07T17:25:00.638Z,95376.90
2018-12-07T17:27:29.819Z,95371.14
2018-12-07T17:29:59.184Z,95366.13
2018-12-07T17:32:28.452Z,95369.42
2018-12-07T17:34:57.670Z,95372.84
2018-12-07T17:37:27.014Z,95365.86
2018-12-07T17:39:56.130Z,95360.50
2018-12-07T17:42:29.523Z,95355.86
2018-12-07T17:44:56.477Z,95358.72
2018-12-07T17:47:25.944Z,95357.81
2018-12-07T17:49:55.298Z,95373.41
2018-12-07T17:52:24.445Z,95370.02
2018-12-07T17:54:53.598Z,95376.09
2018-12-07T17:57:22.851Z,95381.15
2018-12-07T17:59:52.212Z,95380.55
2018-12-07T18:02:21.908Z,95369.89
2018-12-07T18:04:51.255Z,95361.84
2018-12-07T18:07:20.451Z,95362.59
2018-12-07T18:09:49.733Z,95363.16
2018-12-07T18:12:18.896Z,95356.52
2018-12-07T18:14:48.155Z,95356.31
2018-12-07T18:17:17.253Z,95357.66
2018-12-07T18:19:46.462Z,95356.18
2018-12-07T18:22:15.914Z,95355.73
2018-12-07T18:24:45.215Z,95349.68
2018-12-07T18:27:14.370Z,95346.03
2018-12-07T18:29:43.419Z,95347.73
2018-12-07T18:32:12.475Z,95355.30
2018-12-07T18:34:41.698Z,95357.42
2018-12-07T18:40:42.797Z,95346.76
2018-12-07T18:43:12.000Z,95342.66
2018-12-07T18:45:41.191Z,95342.30
2018-12-07T18:48:10.457Z,95339.64
2018-12-07T18:50:39.877Z,95337.97
2018-12-07T18:53:09.167Z,95334.83
2018-12-07T18:55:38.445Z,95332.23
2018-12-07T18:58:07.792Z,95337.16
2018-12-07T19:00:37.176Z,95342.30
2018-12-07T19:03:06.709Z,95331.20
2018-12-07T19:05:36.007Z,95340.78
2018-12-07T19:08:05.533Z,95338.41
2018-12-07T19:10:35.058Z,95334.95
2018-12-07T19:13:04.732Z,95332.58
2018-12-07T19:15:38.267Z,95331.63
2018-12-07T19:18:07.382Z,95333.77
2018-12-07T19:20:36.654Z,95338.41
2018-12-07T19:23:06.049Z,95340.66
2018-12-07T19:25:35.209Z,95340.14
2018-12-07T19:28:05.472Z,95341.23
2018-12-07T19:30:35.287Z,95333.08
2018-12-07T19:33:04.641Z,95336.83
2018-12-07T19:35:34.101Z,95327.84
2018-12-07T19:38:03.210Z,95322.23
2018-12-07T19:40:32.544Z,95322.47
2018-12-07T19:43:02.179Z,95325.52
2018-12-07T19:45:32.105Z,95323.96
2018-12-07T19:48:02.398Z,95324.31
2018-12-07T19:50:32.104Z,95323.47
2018-12-07T19:53:01.522Z,95319.90
2018-12-07T19:55:31.009Z,95319.05
2018-12-07T19:58:00.314Z,95317.89
2018-12-07T20:00:29.789Z,95319.45
2018-12-07T20:02:59.216Z,95316.05
2018-12-07T20:05:28.087Z,95309.19
2018-12-07T20:07:57.476Z,95303.15
2018-12-07T20:10:26.705Z,95299.02
2018-12-07T20:12:55.673Z,95300.72
2018-12-07T20:15:24.730Z,95294.53
2018-12-07T20:17:54.417Z,95297.29
2018-12-07T20:20:23.710Z,95294.35
2018-12-07T20:22:53.272Z,95296.44
2018-12-07T20:25:22.498Z,95288.06
2018-12-07T20:27:51.954Z,95281.45
2018-12-07T20:30:21.220Z,95278.98
2018-12-07T20:32:50.582Z,95280.08
2018-12-07T20:35:19.862Z,95277.81
2018-12-07T20:37:49.140Z,95277.53
2018-12-07T20:40:18.696Z,95269.16
2018-12-07T20:42:47.830Z,95263.23
2018-12-07T20:45:17.126Z,95255.84
2018-12-07T20:47:46.831Z,95260.94
2018-12-07T20:50:16.223Z,95253.63
2018-12-07T20:52:45.359Z,95264.05
2018-12-07T20:55:14.775Z,95257.75
2018-12-07T20:57:43.953Z,95255.77
2018-12-07T21:00:13.058Z,95256.97
2018-12-07T21:02:42.201Z,95257.01
2018-12-07T21:08:10.203Z,95255.88
2018-12-07T21:11:15.800Z,95242.67
2018-12-07T21:14:53.301Z,95241.79
2018-12-07T21:17:27.712Z,95245.19
2018-12-07T21:20:09.901Z,95245.50
2018-12-07T21:22:39.132Z,95250.94
2018-12-07T21:25:08.393Z,95246.91
2018-12-07T21:27:37.771Z,95253.13
2018-12-07T21:30:29.524Z,95252.66
2018-12-07T21:32:58.542Z,95245.95
2018-12-07T21:35:27.974Z,95250.16
2018-12-07T21:37:57.181Z,95245.45
2018-12-07T21:40:29.372Z,95245.91
2018-12-07T21:42:58.698Z,95248.25
2018-12-07T21:45:28.405Z,95246.59
2018-12-07T21:48:24.447Z,95242.20
2018-12-07T21:51:22.109Z,95242.45
2018-12-07T21:53:51.675Z,95234.94
2018-12-07T21:56:21.260Z,95236.59
2018-12-07T21:58:50.898Z,95237.65
2018-12-07T22:01:20.444Z,95222.14
2018-12-07T22:03:50.101Z,95229.42
2018-12-07T22:06:19.643Z,95225.30
2018-12-07T22:08:49.151Z,95219.32
2018-12-07T22:11:18.754Z,95220.45
2018-12-07T22:13:48.408Z,95220.31
2018-12-07T22:16:17.906Z,95215.80
2018-12-07T22:18:47.462Z,95213.85
2018-12-07T22:21:17.281Z,95210.67
2018-12-07T22:23:47.110Z,95204.39
2018-12-07T22:26:16.872Z,95193.47
2018-12-07T22:28:46.366Z,95186.83
2018-12-07T22:31:16.322Z,95191.20
2018-12-07T22:33:46.273Z,95196.75
2018-12-07T22:36:15.698Z,95190.44
2018-12-07T22:38:46.272Z,95180.38
2018-12-07T22:41:16.212Z,95182.78
2018-12-07T22:43:45.653Z,95173.70
2018-12-07T22:46:14.950Z,95172.05
2018-12-07T22:48:44.611Z,95166.81
2018-12-07T22:51:14.185Z,95167.38
2018-12-07T22:53:43.557Z,95159.81
2018-12-07T22:56:12.780Z,95157.94
2018-12-07T22:58:41.848Z,95155.71
2018-12-07T23:01:11.884Z,95153.25
2018-12-07T23:03:41.315Z,95148.81
2018-12-07T23:06:10.603Z,95141.89
2018-12-07T23:08:39.835Z,95140.09
2018-12-07T23:11:09.224Z,95142.59
2018-12-07T23:13:38.595Z,95141.67
2018-12-07T23:16:08.015Z,95130.98
2018-12-07T23:18:37.306Z,95135.12
2018-12-07T23:21:06.592Z,95132.74
2018-12-07T23:23:35.908Z,95136.05
2018-12-07T23:26:05.310Z,95135.70
2018-12-07T23:28:34.797Z,95136.42
2018-12-07T23:31:04.114Z,95133.87
2018-12-07T23:33:33.518Z,95131.11
2018-12-07T23:36:02.806Z,95128.32
2018-12-07T23:38:32.065Z,95129.20
2018-12-07T23:41:01.248Z,95123.28
2018-12-07T23:43:30.722Z,95126.19
2018-12-07T23:46:00.125Z,95124.50
2018-12-07T23:48:29.534Z,95123.00
2018-12-07T23:50:58.932Z,95118.64
2018-12-07T23:53:28.348Z,95114.66
2018-12-07T23:55:57.545Z,95115.41
2018-12-07T23:58:26.853Z,95112.93
